sensor_id;sensor_type;location;lat;lon;timestamp;P1;durP1;ratioP1;P2;durP2;ratioP2
66402;SDS011;53212;52.112;5.144;2023-06-26T00:03:16;5.20;;;4.60;;
66402;SDS011;53212;52.112;5.144;2023-06-26T00:05:41;4.20;;;3.90;;
66402;SDS011;53212;52.112;5.144;2023-06-26T00:08:17;5.70;;;5.00;;
66402;SDS011;53212;52.112;5.144;2023-06-26T00:10:42;6.10;;;4.90;;
66402;SDS011;53212;52.112;5.144;2023-06-26T00:13:08;7.30;;;4.70;;
66402;SDS011;53212;52.112;5.144;2023-06-26T00:15:33;5.20;;;4.80;;
66402;SDS011;53212;52.112;5.144;2023-06-26T00:17:59;7.90;;;4.90;;
66402;SDS011;53212;52.112;5.144;2023-06-26T00:20:24;5.30;;;4.80;;
66402;SDS011;53212;52.112;5.144;2023-06-26T00:22:50;5.70;;;4.70;;
66402;SDS011;53212;52.112;5.144;2023-06-26T00:25:16;5.20;;;4.80;;
66402;SDS011;53212;52.112;5.144;2023-06-26T00:27:41;5.30;;;4.70;;
66402;SDS011;53212;52.112;5.144;2023-06-26T00:30:08;5.20;;;4.70;;
66402;SDS011;53212;52.112;5.144;2023-06-26T00:32:34;5.20;;;4.60;;
66402;SDS011;53212;52.112;5.144;2023-06-26T00:34:59;6.50;;;4.90;;
66402;SDS011;53212;52.112;5.144;2023-06-26T00:37:25;5.50;;;5.00;;
66402;SDS011;53212;52.112;5.144;2023-06-26T00:39:50;5.40;;;4.30;;
66402;SDS011;53212;52.112;5.144;2023-06-26T00:42:16;5.50;;;5.00;;
66402;SDS011;53212;52.112;5.144;2023-06-26T00:44:41;5.50;;;5.00;;
66402;SDS011;53212;52.112;5.144;2023-06-26T00:47:07;5.20;;;4.80;;
66402;SDS011;53212;52.112;5.144;2023-06-26T00:49:34;8.20;;;5.40;;
66402;SDS011;53212;52.112;5.144;2023-06-26T00:52:00;5.90;;;5.30;;
66402;SDS011;53212;52.112;5.144;2023-06-26T00:54:25;5.90;;;5.30;;
66402;SDS011;53212;52.112;5.144;2023-06-26T00:56:51;5.90;;;5.20;;
66402;SDS011;53212;52.112;5.144;2023-06-26T00:59:16;6.40;;;5.90;;
66402;SDS011;53212;52.112;5.144;2023-06-26T01:01:42;6.20;;;5.30;;
66402;SDS011;53212;52.112;5.144;2023-06-26T01:04:08;6.10;;;5.60;;
66402;SDS011;53212;52.112;5.144;2023-06-26T01:06:43;6.10;;;5.60;;
66402;SDS011;53212;52.112;5.144;2023-06-26T01:09:17;6.70;;;6.10;;
66402;SDS011;53212;52.112;5.144;2023-06-26T01:11:44;6.30;;;5.70;;
66402;SDS011;53212;52.112;5.144;2023-06-26T01:14:10;6.20;;;5.70;;
66402;SDS011;53212;52.112;5.144;2023-06-26T01:16:36;7.90;;;6.90;;
66402;SDS011;53212;52.112;5.144;2023-06-26T01:19:09;7.40;;;5.60;;
66402;SDS011;53212;52.112;5.144;2023-06-26T01:21:42;5.80;;;5.30;;
66402;SDS011;53212;52.112;5.144;2023-06-26T01:24:15;5.40;;;4.90;;
66402;SDS011;53212;52.112;5.144;2023-06-26T01:26:47;5.80;;;5.00;;
66402;SDS011;53212;52.112;5.144;2023-06-26T01:29:15;5.90;;;5.20;;
66402;SDS011;53212;52.112;5.144;2023-06-26T01:31:43;5.70;;;5.20;;
66402;SDS011;53212;52.112;5.144;2023-06-26T01:34:11;5.30;;;4.80;;
66402;SDS011;53212;52.112;5.144;2023-06-26T01:36:37;8.90;;;5.30;;
66402;SDS011;53212;52.112;5.144;2023-06-26T01:39:03;7.00;;;4.30;;
66402;SDS011;53212;52.112;5.144;2023-06-26T01:41:28;6.50;;;4.20;;
66402;SDS011;53212;52.112;5.144;2023-06-26T01:49:52;6.20;;;4.30;;
66402;SDS011;53212;52.112;5.144;2023-06-26T01:52:46;7.20;;;3.90;;
66402;SDS011;53212;52.112;5.144;2023-06-26T01:55:51;4.70;;;4.10;;
66402;SDS011;53212;52.112;5.144;2023-06-26T01:58:43;5.40;;;4.40;;
66402;SDS011;53212;52.112;5.144;2023-06-26T02:01:10;8.70;;;4.70;;
66402;SDS011;53212;52.112;5.144;2023-06-26T02:03:37;6.60;;;4.30;;
66402;SDS011;53212;52.112;5.144;2023-06-26T02:06:02;4.70;;;3.80;;
66402;SDS011;53212;52.112;5.144;2023-06-26T02:08:28;10.20;;;4.30;;
66402;SDS011;53212;52.112;5.144;2023-06-26T02:10:53;8.90;;;4.20;;
66402;SDS011;53212;52.112;5.144;2023-06-26T02:13:19;8.60;;;4.70;;
66402;SDS011;53212;52.112;5.144;2023-06-26T02:15:44;8.30;;;4.10;;
66402;SDS011;53212;52.112;5.144;2023-06-26T02:18:09;5.90;;;3.50;;
66402;SDS011;53212;52.112;5.144;2023-06-26T02:20:35;9.00;;;4.60;;
66402;SDS011;53212;52.112;5.144;2023-06-26T02:23:01;8.30;;;4.00;;
66402;SDS011;53212;52.112;5.144;2023-06-26T02:25:26;9.90;;;3.90;;
66402;SDS011;53212;52.112;5.144;2023-06-26T02:27:52;8.10;;;4.40;;
66402;SDS011;53212;52.112;5.144;2023-06-26T02:30:17;10.10;;;4.40;;
66402;SDS011;53212;52.112;5.144;2023-06-26T02:32:43;6.70;;;3.60;;
66402;SDS011;53212;52.112;5.144;2023-06-26T02:35:08;8.00;;;3.90;;
66402;SDS011;53212;52.112;5.144;2023-06-26T02:37:34;11.40;;;4.70;;
66402;SDS011;53212;52.112;5.144;2023-06-26T02:39:59;9.70;;;4.10;;
66402;SDS011;53212;52.112;5.144;2023-06-26T02:42:25;7.80;;;4.10;;
66402;SDS011;53212;52.112;5.144;2023-06-26T02:44:50;8.20;;;4.20;;
66402;SDS011;53212;52.112;5.144;2023-06-26T02:47:15;7.20;;;4.10;;
66402;SDS011;53212;52.112;5.144;2023-06-26T02:49:41;6.60;;;4.00;;
66402;SDS011;53212;52.112;5.144;2023-06-26T02:52:06;7.40;;;4.20;;
66402;SDS011;53212;52.112;5.144;2023-06-26T02:54:32;6.60;;;4.40;;
66402;SDS011;53212;52.112;5.144;2023-06-26T02:56:57;14.60;;;4.60;;
66402;SDS011;53212;52.112;5.144;2023-06-26T02:59:24;10.80;;;4.70;;
66402;SDS011;53212;52.112;5.144;2023-06-26T03:01:50;10.40;;;4.50;;
66402;SDS011;53212;52.112;5.144;2023-06-26T03:04:15;10.00;;;4.20;;
66402;SDS011;53212;52.112;5.144;2023-06-26T03:06:43;8.20;;;3.60;;
66402;SDS011;53212;52.112;5.144;2023-06-26T03:09:08;10.40;;;4.60;;
66402;SDS011;53212;52.112;5.144;2023-06-26T03:11:34;9.70;;;4.60;;
66402;SDS011;53212;52.112;5.144;2023-06-26T03:13:59;9.10;;;4.30;;
66402;SDS011;53212;52.112;5.144;2023-06-26T03:16:24;8.70;;;4.70;;
66402;SDS011;53212;52.112;5.144;2023-06-26T03:18:50;9.00;;;5.00;;
66402;SDS011;53212;52.112;5.144;2023-06-26T03:21:15;10.80;;;4.90;;
66402;SDS011;53212;52.112;5.144;2023-06-26T03:23:42;9.90;;;4.80;;
66402;SDS011;53212;52.112;5.144;2023-06-26T03:26:07;15.80;;;4.70;;
66402;SDS011;53212;52.112;5.144;2023-06-26T03:28:33;9.90;;;4.40;;
66402;SDS011;53212;52.112;5.144;2023-06-26T03:30:58;14.70;;;5.30;;
66402;SDS011;53212;52.112;5.144;2023-06-26T03:33:23;10.60;;;4.80;;
66402;SDS011;53212;52.112;5.144;2023-06-26T03:35:49;12.30;;;5.00;;
66402;SDS011;53212;52.112;5.144;2023-06-26T03:38:15;9.50;;;4.50;;
66402;SDS011;53212;52.112;5.144;2023-06-26T03:40:40;10.30;;;5.00;;
66402;SDS011;53212;52.112;5.144;2023-06-26T03:43:05;9.50;;;4.90;;
66402;SDS011;53212;52.112;5.144;2023-06-26T03:45:31;10.30;;;5.00;;
66402;SDS011;53212;52.112;5.144;2023-06-26T03:47:57;12.70;;;4.90;;
66402;SDS011;53212;52.112;5.144;2023-06-26T03:50:22;10.50;;;4.70;;
66402;SDS011;53212;52.112;5.144;2023-06-26T03:52:47;12.20;;;5.00;;
66402;SDS011;53212;52.112;5.144;2023-06-26T03:55:14;10.40;;;4.60;;
66402;SDS011;53212;52.112;5.144;2023-06-26T03:57:40;12.00;;;5.00;;
66402;SDS011;53212;52.112;5.144;2023-06-26T04:00:06;10.00;;;4.20;;
66402;SDS011;53212;52.112;5.144;2023-06-26T04:02:36;9.10;;;4.90;;
66402;SDS011;53212;52.112;5.144;2023-06-26T04:05:02;9.30;;;4.20;;
66402;SDS011;53212;52.112;5.144;2023-06-26T04:07:29;15.20;;;5.10;;
66402;SDS011;53212;52.112;5.144;2023-06-26T04:09:54;14.70;;;5.20;;
66402;SDS011;53212;52.112;5.144;2023-06-26T04:12:20;11.80;;;4.40;;
66402;SDS011;53212;52.112;5.144;2023-06-26T04:14:45;15.20;;;5.10;;
66402;SDS011;53212;52.112;5.144;2023-06-26T04:17:10;8.70;;;4.50;;
66402;SDS011;53212;52.112;5.144;2023-06-26T04:19:36;10.80;;;4.60;;
66402;SDS011;53212;52.112;5.144;2023-06-26T04:22:02;10.80;;;4.40;;
66402;SDS011;53212;52.112;5.144;2023-06-26T04:24:28;10.00;;;5.30;;
66402;SDS011;53212;52.112;5.144;2023-06-26T04:26:53;9.10;;;4.40;;
66402;SDS011;53212;52.112;5.144;2023-06-26T04:29:22;11.80;;;4.50;;
66402;SDS011;53212;52.112;5.144;2023-06-26T04:31:51;13.40;;;4.70;;
66402;SDS011;53212;52.112;5.144;2023-06-26T04:34:17;8.90;;;4.40;;
66402;SDS011;53212;52.112;5.144;2023-06-26T04:36:42;13.00;;;4.60;;
66402;SDS011;53212;52.112;5.144;2023-06-26T04:39:11;11.50;;;5.10;;
66402;SDS011;53212;52.112;5.144;2023-06-26T04:41:37;9.40;;;4.10;;
66402;SDS011;53212;52.112;5.144;2023-06-26T04:44:02;11.10;;;4.10;;
66402;SDS011;53212;52.112;5.144;2023-06-26T04:46:28;10.50;;;4.30;;
66402;SDS011;53212;52.112;5.144;2023-06-26T04:48:54;8.70;;;3.80;;
66402;SDS011;53212;52.112;5.144;2023-06-26T04:51:19;6.90;;;3.30;;
66402;SDS011;53212;52.112;5.144;2023-06-26T04:53:46;6.20;;;3.80;;
66402;SDS011;53212;52.112;5.144;2023-06-26T04:56:11;6.80;;;3.90;;
66402;SDS011;53212;52.112;5.144;2023-06-26T04:58:36;6.80;;;3.50;;
66402;SDS011;53212;52.112;5.144;2023-06-26T05:01:02;5.80;;;3.90;;
66402;SDS011;53212;52.112;5.144;2023-06-26T05:03:27;6.40;;;3.20;;
66402;SDS011;53212;52.112;5.144;2023-06-26T05:05:53;7.60;;;3.20;;
66402;SDS011;53212;52.112;5.144;2023-06-26T05:08:23;4.80;;;3.00;;
66402;SDS011;53212;52.112;5.144;2023-06-26T05:10:51;6.50;;;3.00;;
66402;SDS011;53212;52.112;5.144;2023-06-26T05:13:18;6.00;;;3.60;;
66402;SDS011;53212;52.112;5.144;2023-06-26T05:15:45;6.70;;;3.00;;
66402;SDS011;53212;52.112;5.144;2023-06-26T05:18:11;5.90;;;3.00;;
66402;SDS011;53212;52.112;5.144;2023-06-26T05:20:37;4.00;;;2.50;;
66402;SDS011;53212;52.112;5.144;2023-06-26T05:23:04;7.70;;;3.10;;
66402;SDS011;53212;52.112;5.144;2023-06-26T05:25:31;4.90;;;2.70;;
66402;SDS011;53212;52.112;5.144;2023-06-26T05:27:57;6.30;;;3.20;;
66402;SDS011;53212;52.112;5.144;2023-06-26T05:30:25;3.20;;;2.50;;
66402;SDS011;53212;52.112;5.144;2023-06-26T05:32:51;4.30;;;2.80;;
66402;SDS011;53212;52.112;5.144;2023-06-26T05:35:19;5.30;;;2.90;;
66402;SDS011;53212;52.112;5.144;2023-06-26T05:37:48;5.80;;;2.50;;
66402;SDS011;53212;52.112;5.144;2023-06-26T05:40:17;6.50;;;3.30;;
66402;SDS011;53212;52.112;5.144;2023-06-26T05:42:44;4.90;;;2.40;;
66402;SDS011;53212;52.112;5.144;2023-06-26T05:45:10;3.20;;;2.00;;
66402;SDS011;53212;52.112;5.144;2023-06-26T05:47:36;5.40;;;2.50;;
66402;SDS011;53212;52.112;5.144;2023-06-26T05:50:03;3.20;;;2.40;;
66402;SDS011;53212;52.112;5.144;2023-06-26T05:52:29;6.20;;;2.30;;
66402;SDS011;53212;52.112;5.144;2023-06-26T05:54:58;4.10;;;2.40;;
66402;SDS011;53212;52.112;5.144;2023-06-26T05:57:26;4.30;;;2.30;;
66402;SDS011;53212;52.112;5.144;2023-06-26T05:59:53;4.30;;;2.60;;
66402;SDS011;53212;52.112;5.144;2023-06-26T06:02:19;6.40;;;2.30;;
66402;SDS011;53212;52.112;5.144;2023-06-26T06:04:44;4.10;;;2.40;;
66402;SDS011;53212;52.112;5.144;2023-06-26T06:07:09;4.60;;;2.30;;
66402;SDS011;53212;52.112;5.144;2023-06-26T06:09:35;3.00;;;1.80;;
66402;SDS011;53212;52.112;5.144;2023-06-26T06:12:01;2.70;;;1.60;;
66402;SDS011;53212;52.112;5.144;2023-06-26T06:14:29;3.20;;;2.00;;
66402;SDS011;53212;52.112;5.144;2023-06-26T06:16:55;3.00;;;2.00;;
66402;SDS011;53212;52.112;5.144;2023-06-26T06:19:21;2.30;;;2.10;;
66402;SDS011;53212;52.112;5.144;2023-06-26T06:21:46;2.60;;;1.80;;
66402;SDS011;53212;52.112;5.144;2023-06-26T06:24:12;3.10;;;2.10;;
66402;SDS011;53212;52.112;5.144;2023-06-26T06:26:37;2.00;;;1.70;;
66402;SDS011;53212;52.112;5.144;2023-06-26T06:29:03;3.20;;;2.00;;
66402;SDS011;53212;52.112;5.144;2023-06-26T06:31:28;3.70;;;2.10;;
66402;SDS011;53212;52.112;5.144;2023-06-26T06:33:55;4.40;;;2.20;;
66402;SDS011;53212;52.112;5.144;2023-06-26T06:36:20;3.30;;;2.20;;
66402;SDS011;53212;52.112;5.144;2023-06-26T06:38:46;4.20;;;2.40;;
66402;SDS011;53212;52.112;5.144;2023-06-26T06:41:11;3.40;;;2.40;;
66402;SDS011;53212;52.112;5.144;2023-06-26T06:43:38;8.00;;;2.50;;
66402;SDS011;53212;52.112;5.144;2023-06-26T06:46:04;3.60;;;2.30;;
66402;SDS011;53212;52.112;5.144;2023-06-26T06:48:31;3.50;;;2.60;;
66402;SDS011;53212;52.112;5.144;2023-06-26T06:50:56;6.00;;;2.70;;
66402;SDS011;53212;52.112;5.144;2023-06-26T06:53:22;6.90;;;2.60;;
66402;SDS011;53212;52.112;5.144;2023-06-26T06:55:51;5.60;;;2.80;;
66402;SDS011;53212;52.112;5.144;2023-06-26T06:58:17;5.40;;;2.50;;
66402;SDS011;53212;52.112;5.144;2023-06-26T07:00:44;5.50;;;2.40;;
66402;SDS011;53212;52.112;5.144;2023-06-26T07:03:10;5.90;;;2.40;;
66402;SDS011;53212;52.112;5.144;2023-06-26T07:05:37;5.20;;;2.50;;
66402;SDS011;53212;52.112;5.144;2023-06-26T07:08:03;3.40;;;2.10;;
66402;SDS011;53212;52.112;5.144;2023-06-26T07:10:29;5.20;;;2.20;;
66402;SDS011;53212;52.112;5.144;2023-06-26T07:12:55;4.40;;;2.30;;
66402;SDS011;53212;52.112;5.144;2023-06-26T07:15:20;5.40;;;2.30;;
66402;SDS011;53212;52.112;5.144;2023-06-26T07:17:46;4.70;;;2.40;;
66402;SDS011;53212;52.112;5.144;2023-06-26T07:20:11;5.30;;;1.90;;
66402;SDS011;53212;52.112;5.144;2023-06-26T07:22:40;3.90;;;1.80;;
66402;SDS011;53212;52.112;5.144;2023-06-26T07:25:08;5.10;;;2.10;;
66402;SDS011;53212;52.112;5.144;2023-06-26T07:27:39;4.20;;;1.80;;
66402;SDS011;53212;52.112;5.144;2023-06-26T07:30:06;2.60;;;1.70;;
66402;SDS011;53212;52.112;5.144;2023-06-26T07:32:36;5.00;;;2.20;;
66402;SDS011;53212;52.112;5.144;2023-06-26T07:35:02;5.20;;;2.00;;
66402;SDS011;53212;52.112;5.144;2023-06-26T07:37:28;6.60;;;2.00;;
66402;SDS011;53212;52.112;5.144;2023-06-26T07:39:54;4.20;;;1.90;;
66402;SDS011;53212;52.112;5.144;2023-06-26T07:42:19;6.00;;;1.60;;
66402;SDS011;53212;52.112;5.144;2023-06-26T07:44:45;5.00;;;2.20;;
66402;SDS011;53212;52.112;5.144;2023-06-26T07:47:11;2.30;;;2.00;;
66402;SDS011;53212;52.112;5.144;2023-06-26T07:49:36;4.20;;;2.00;;
66402;SDS011;53212;52.112;5.144;2023-06-26T07:52:04;4.60;;;2.10;;
66402;SDS011;53212;52.112;5.144;2023-06-26T07:54:30;3.50;;;1.90;;
66402;SDS011;53212;52.112;5.144;2023-06-26T07:56:58;5.00;;;2.40;;
66402;SDS011;53212;52.112;5.144;2023-06-26T07:59:27;4.70;;;1.80;;
66402;SDS011;53212;52.112;5.144;2023-06-26T08:01:55;5.20;;;2.10;;
66402;SDS011;53212;52.112;5.144;2023-06-26T08:04:23;4.30;;;1.80;;
66402;SDS011;53212;52.112;5.144;2023-06-26T08:06:55;2.20;;;1.60;;
66402;SDS011;53212;52.112;5.144;2023-06-26T08:09:25;5.20;;;1.80;;
66402;SDS011;53212;52.112;5.144;2023-06-26T08:11:51;4.20;;;1.80;;
66402;SDS011;53212;52.112;5.144;2023-06-26T08:14:17;4.20;;;1.90;;
66402;SDS011;53212;52.112;5.144;2023-06-26T08:16:44;7.90;;;2.30;;
66402;SDS011;53212;52.112;5.144;2023-06-26T08:19:13;3.50;;;1.80;;
66402;SDS011;53212;52.112;5.144;2023-06-26T08:21:43;9.50;;;1.80;;
66402;SDS011;53212;52.112;5.144;2023-06-26T08:24:10;5.70;;;1.60;;
66402;SDS011;53212;52.112;5.144;2023-06-26T08:26:38;6.80;;;1.80;;
66402;SDS011;53212;52.112;5.144;2023-06-26T08:29:04;3.80;;;1.70;;
66402;SDS011;53212;52.112;5.144;2023-06-26T08:31:34;4.80;;;1.60;;
66402;SDS011;53212;52.112;5.144;2023-06-26T08:34:01;4.20;;;1.80;;
66402;SDS011;53212;52.112;5.144;2023-06-26T08:36:28;5.30;;;1.80;;
66402;SDS011;53212;52.112;5.144;2023-06-26T08:38:53;3.40;;;1.50;;
66402;SDS011;53212;52.112;5.144;2023-06-26T08:41:19;5.40;;;1.90;;
66402;SDS011;53212;52.112;5.144;2023-06-26T08:43:45;2.90;;;1.60;;
66402;SDS011;53212;52.112;5.144;2023-06-26T08:46:11;5.30;;;2.00;;
66402;SDS011;53212;52.112;5.144;2023-06-26T08:48:37;5.00;;;1.60;;
66402;SDS011;53212;52.112;5.144;2023-06-26T08:51:11;4.90;;;1.90;;
66402;SDS011;53212;52.112;5.144;2023-06-26T08:56:21;6.10;;;2.20;;
66402;SDS011;53212;52.112;5.144;2023-06-26T08:58:47;4.80;;;1.60;;
66402;SDS011;53212;52.112;5.144;2023-06-26T09:01:13;5.40;;;1.80;;
66402;SDS011;53212;52.112;5.144;2023-06-26T09:03:39;4.80;;;1.70;;
66402;SDS011;53212;52.112;5.144;2023-06-26T09:06:06;3.40;;;1.50;;
66402;SDS011;53212;52.112;5.144;2023-06-26T09:08:32;5.60;;;1.70;;
66402;SDS011;53212;52.112;5.144;2023-06-26T09:10:58;5.50;;;1.90;;
66402;SDS011;53212;52.112;5.144;2023-06-26T09:13:24;4.20;;;1.80;;
66402;SDS011;53212;52.112;5.144;2023-06-26T09:15:49;2.90;;;1.70;;
66402;SDS011;53212;52.112;5.144;2023-06-26T09:18:18;2.60;;;1.60;;
66402;SDS011;53212;52.112;5.144;2023-06-26T09:20:47;3.30;;;1.80;;
66402;SDS011;53212;52.112;5.144;2023-06-26T09:23:13;7.40;;;1.90;;
66402;SDS011;53212;52.112;5.144;2023-06-26T09:25:40;4.40;;;1.90;;
66402;SDS011;53212;52.112;5.144;2023-06-26T09:28:06;2.70;;;1.40;;
66402;SDS011;53212;52.112;5.144;2023-06-26T09:30:32;5.00;;;2.00;;
66402;SDS011;53212;52.112;5.144;2023-06-26T09:33:20;4.10;;;1.80;;
66402;SDS011;53212;52.112;5.144;2023-06-26T09:35:46;2.80;;;1.50;;
66402;SDS011;53212;52.112;5.144;2023-06-26T09:38:13;3.50;;;1.60;;
66402;SDS011;53212;52.112;5.144;2023-06-26T09:40:40;3.00;;;1.70;;
66402;SDS011;53212;52.112;5.144;2023-06-26T09:43:06;7.70;;;2.00;;
66402;SDS011;53212;52.112;5.144;2023-06-26T09:45:33;4.30;;;1.40;;
66402;SDS011;53212;52.112;5.144;2023-06-26T09:48:04;3.90;;;1.90;;
66402;SDS011;53212;52.112;5.144;2023-06-26T09:50:34;3.10;;;1.20;;
66402;SDS011;53212;52.112;5.144;2023-06-26T09:53:13;3.90;;;1.80;;
66402;SDS011;53212;52.112;5.144;2023-06-26T09:55:39;4.30;;;1.60;;
66402;SDS011;53212;52.112;5.144;2023-06-26T09:58:10;3.60;;;1.70;;
66402;SDS011;53212;52.112;5.144;2023-06-26T10:00:40;4.10;;;1.70;;
66402;SDS011;53212;52.112;5.144;2023-06-26T10:03:07;6.00;;;1.50;;
66402;SDS011;53212;52.112;5.144;2023-06-26T10:05:33;4.70;;;2.00;;
66402;SDS011;53212;52.112;5.144;2023-06-26T10:07:58;5.20;;;1.60;;
66402;SDS011;53212;52.112;5.144;2023-06-26T10:10:25;4.10;;;1.50;;
66402;SDS011;53212;52.112;5.144;2023-06-26T10:12:54;4.70;;;1.40;;
66402;SDS011;53212;52.112;5.144;2023-06-26T10:15:24;4.30;;;1.20;;
66402;SDS011;53212;52.112;5.144;2023-06-26T10:17:51;2.80;;;1.50;;
66402;SDS011;53212;52.112;5.144;2023-06-26T10:20:18;4.20;;;1.50;;
66402;SDS011;53212;52.112;5.144;2023-06-26T10:22:45;3.00;;;1.40;;
66402;SDS011;53212;52.112;5.144;2023-06-26T10:25:13;3.30;;;1.30;;
66402;SDS011;53212;52.112;5.144;2023-06-26T10:27:57;1.40;;;1.10;;
66402;SDS011;53212;52.112;5.144;2023-06-26T10:30:27;4.10;;;1.20;;
66402;SDS011;53212;52.112;5.144;2023-06-26T10:32:56;3.50;;;1.30;;
66402;SDS011;53212;52.112;5.144;2023-06-26T10:35:24;3.00;;;1.20;;
66402;SDS011;53212;52.112;5.144;2023-06-26T10:37:50;4.30;;;1.60;;
66402;SDS011;53212;52.112;5.144;2023-06-26T10:40:25;2.30;;;1.20;;
66402;SDS011;53212;52.112;5.144;2023-06-26T10:42:52;1.30;;;1.10;;
66402;SDS011;53212;52.112;5.144;2023-06-26T10:45:31;2.10;;;1.20;;
66402;SDS011;53212;52.112;5.144;2023-06-26T10:47:58;3.50;;;1.80;;
66402;SDS011;53212;52.112;5.144;2023-06-26T10:50:26;3.30;;;1.50;;
66402;SDS011;53212;52.112;5.144;2023-06-26T10:56:04;2.50;;;1.70;;
66402;SDS011;53212;52.112;5.144;2023-06-26T11:03:42;2.20;;;1.30;;
66402;SDS011;53212;52.112;5.144;2023-06-26T11:06:13;4.60;;;1.50;;
66402;SDS011;53212;52.112;5.144;2023-06-26T11:08:50;2.80;;;1.10;;
66402;SDS011;53212;52.112;5.144;2023-06-26T11:11:19;4.70;;;1.30;;
66402;SDS011;53212;52.112;5.144;2023-06-26T11:13:46;1.40;;;1.20;;
66402;SDS011;53212;52.112;5.144;2023-06-26T11:16:13;3.20;;;1.50;;
66402;SDS011;53212;52.112;5.144;2023-06-26T11:18:44;2.40;;;1.10;;
66402;SDS011;53212;52.112;5.144;2023-06-26T11:21:11;5.60;;;1.40;;
66402;SDS011;53212;52.112;5.144;2023-06-26T11:26:17;3.80;;;1.30;;
66402;SDS011;53212;52.112;5.144;2023-06-26T11:28:51;2.10;;;1.10;;
66402;SDS011;53212;52.112;5.144;2023-06-26T11:31:33;3.90;;;1.20;;
66402;SDS011;53212;52.112;5.144;2023-06-26T11:34:02;2.80;;;1.30;;
66402;SDS011;53212;52.112;5.144;2023-06-26T11:36:29;7.20;;;1.30;;
66402;SDS011;53212;52.112;5.144;2023-06-26T11:39:01;2.50;;;1.00;;
66402;SDS011;53212;52.112;5.144;2023-06-26T11:41:31;1.70;;;1.10;;
66402;SDS011;53212;52.112;5.144;2023-06-26T11:44:05;1.50;;;1.00;;
66402;SDS011;53212;52.112;5.144;2023-06-26T11:46:35;1.90;;;1.00;;
66402;SDS011;53212;52.112;5.144;2023-06-26T11:49:05;4.70;;;1.40;;
66402;SDS011;53212;52.112;5.144;2023-06-26T11:51:32;2.90;;;1.20;;
66402;SDS011;53212;52.112;5.144;2023-06-26T11:54:00;3.70;;;1.00;;
66402;SDS011;53212;52.112;5.144;2023-06-26T11:56:30;2.50;;;1.10;;
66402;SDS011;53212;52.112;5.144;2023-06-26T11:59:06;3.10;;;1.00;;
66402;SDS011;53212;52.112;5.144;2023-06-26T12:01:43;2.00;;;1.10;;
66402;SDS011;53212;52.112;5.144;2023-06-26T12:04:16;1.40;;;0.90;;
66402;SDS011;53212;52.112;5.144;2023-06-26T12:06:49;3.30;;;1.30;;
66402;SDS011;53212;52.112;5.144;2023-06-26T12:09:17;1.50;;;0.80;;
66402;SDS011;53212;52.112;5.144;2023-06-26T12:11:44;2.20;;;1.10;;
66402;SDS011;53212;52.112;5.144;2023-06-26T12:14:13;3.60;;;1.40;;
66402;SDS011;53212;52.112;5.144;2023-06-26T12:16:39;2.20;;;1.40;;
66402;SDS011;53212;52.112;5.144;2023-06-26T12:19:07;2.70;;;1.20;;
66402;SDS011;53212;52.112;5.144;2023-06-26T12:23:59;1.50;;;1.10;;
66402;SDS011;53212;52.112;5.144;2023-06-26T12:26:25;1.80;;;1.20;;
66402;SDS011;53212;52.112;5.144;2023-06-26T12:28:51;3.50;;;1.10;;
66402;SDS011;53212;52.112;5.144;2023-06-26T12:31:19;2.10;;;0.80;;
66402;SDS011;53212;52.112;5.144;2023-06-26T12:33:46;1.60;;;1.00;;
66402;SDS011;53212;52.112;5.144;2023-06-26T12:36:13;2.10;;;0.90;;
66402;SDS011;53212;52.112;5.144;2023-06-26T12:38:40;2.80;;;1.30;;
66402;SDS011;53212;52.112;5.144;2023-06-26T12:41:12;2.40;;;1.20;;
66402;SDS011;53212;52.112;5.144;2023-06-26T12:43:41;3.00;;;1.20;;
66402;SDS011;53212;52.112;5.144;2023-06-26T12:46:07;3.30;;;1.30;;
66402;SDS011;53212;52.112;5.144;2023-06-26T12:48:42;1.60;;;1.00;;
66402;SDS011;53212;52.112;5.144;2023-06-26T12:51:11;1.30;;;0.90;;
66402;SDS011;53212;52.112;5.144;2023-06-26T12:53:41;1.90;;;1.30;;
66402;SDS011;53212;52.112;5.144;2023-06-26T12:56:07;2.90;;;0.90;;
66402;SDS011;53212;52.112;5.144;2023-06-26T12:58:34;4.40;;;1.30;;
66402;SDS011;53212;52.112;5.144;2023-06-26T13:01:05;3.90;;;1.30;;
66402;SDS011;53212;52.112;5.144;2023-06-26T13:03:50;2.20;;;1.00;;
66402;SDS011;53212;52.112;5.144;2023-06-26T13:06:17;2.00;;;1.20;;
66402;SDS011;53212;52.112;5.144;2023-06-26T13:08:42;4.70;;;1.50;;
66402;SDS011;53212;52.112;5.144;2023-06-26T13:11:09;3.50;;;1.00;;
66402;SDS011;53212;52.112;5.144;2023-06-26T13:13:34;1.90;;;1.10;;
66402;SDS011;53212;52.112;5.144;2023-06-26T13:16:00;4.30;;;1.00;;
66402;SDS011;53212;52.112;5.144;2023-06-26T13:18:25;1.70;;;1.30;;
66402;SDS011;53212;52.112;5.144;2023-06-26T13:20:51;1.80;;;1.10;;
66402;SDS011;53212;52.112;5.144;2023-06-26T13:23:16;2.50;;;1.10;;
66402;SDS011;53212;52.112;5.144;2023-06-26T13:25:44;2.00;;;1.00;;
66402;SDS011;53212;52.112;5.144;2023-06-26T13:28:10;2.40;;;1.30;;
66402;SDS011;53212;52.112;5.144;2023-06-26T13:30:36;3.10;;;1.20;;
66402;SDS011;53212;52.112;5.144;2023-06-26T13:33:01;2.00;;;1.00;;
66402;SDS011;53212;52.112;5.144;2023-06-26T13:35:27;2.30;;;1.30;;
66402;SDS011;53212;52.112;5.144;2023-06-26T13:37:52;3.10;;;1.10;;
66402;SDS011;53212;52.112;5.144;2023-06-26T13:40:18;1.60;;;1.20;;
66402;SDS011;53212;52.112;5.144;2023-06-26T13:42:43;1.70;;;1.10;;
66402;SDS011;53212;52.112;5.144;2023-06-26T13:45:09;1.50;;;0.90;;
66402;SDS011;53212;52.112;5.144;2023-06-26T13:47:35;2.70;;;1.10;;
66402;SDS011;53212;52.112;5.144;2023-06-26T13:50:03;2.70;;;0.90;;
66402;SDS011;53212;52.112;5.144;2023-06-26T13:52:31;2.00;;;1.10;;
66402;SDS011;53212;52.112;5.144;2023-06-26T13:54:56;5.70;;;1.50;;
66402;SDS011;53212;52.112;5.144;2023-06-26T13:57:22;1.30;;;0.90;;
66402;SDS011;53212;52.112;5.144;2023-06-26T13:59:47;1.50;;;1.00;;
66402;SDS011;53212;52.112;5.144;2023-06-26T14:02:13;1.00;;;0.80;;
66402;SDS011;53212;52.112;5.144;2023-06-26T14:04:39;2.10;;;1.10;;
66402;SDS011;53212;52.112;5.144;2023-06-26T14:07:05;2.10;;;1.10;;
66402;SDS011;53212;52.112;5.144;2023-06-26T14:09:31;3.70;;;1.00;;
66402;SDS011;53212;52.112;5.144;2023-06-26T14:11:56;1.80;;;1.10;;
66402;SDS011;53212;52.112;5.144;2023-06-26T14:14:22;1.40;;;0.90;;
66402;SDS011;53212;52.112;5.144;2023-06-26T14:16:47;1.30;;;0.80;;
66402;SDS011;53212;52.112;5.144;2023-06-26T14:19:14;0.90;;;0.80;;
66402;SDS011;53212;52.112;5.144;2023-06-26T14:21:41;2.50;;;0.90;;
66402;SDS011;53212;52.112;5.144;2023-06-26T14:24:06;2.20;;;1.00;;
66402;SDS011;53212;52.112;5.144;2023-06-26T14:26:32;3.10;;;1.10;;
66402;SDS011;53212;52.112;5.144;2023-06-26T14:29:00;2.60;;;1.00;;
66402;SDS011;53212;52.112;5.144;2023-06-26T14:31:26;2.20;;;1.10;;
66402;SDS011;53212;52.112;5.144;2023-06-26T14:33:52;2.00;;;1.10;;
66402;SDS011;53212;52.112;5.144;2023-06-26T14:36:17;2.10;;;1.20;;
66402;SDS011;53212;52.112;5.144;2023-06-26T14:38:44;3.50;;;0.90;;
66402;SDS011;53212;52.112;5.144;2023-06-26T14:41:10;2.70;;;1.10;;
66402;SDS011;53212;52.112;5.144;2023-06-26T14:43:35;3.40;;;1.00;;
66402;SDS011;53212;52.112;5.144;2023-06-26T14:46:01;1.10;;;0.90;;
66402;SDS011;53212;52.112;5.144;2023-06-26T14:48:26;4.50;;;1.10;;
66402;SDS011;53212;52.112;5.144;2023-06-26T14:50:52;3.70;;;1.10;;
66402;SDS011;53212;52.112;5.144;2023-06-26T14:53:17;2.00;;;1.10;;
66402;SDS011;53212;52.112;5.144;2023-06-26T14:55:43;2.40;;;1.00;;
66402;SDS011;53212;52.112;5.144;2023-06-26T14:58:08;2.20;;;1.30;;
66402;SDS011;53212;52.112;5.144;2023-06-26T15:00:34;3.00;;;1.20;;
66402;SDS011;53212;52.112;5.144;2023-06-26T15:02:59;2.70;;;0.80;;
66402;SDS011;53212;52.112;5.144;2023-06-26T15:05:25;2.30;;;1.00;;
66402;SDS011;53212;52.112;5.144;2023-06-26T15:07:51;2.80;;;1.10;;
66402;SDS011;53212;52.112;5.144;2023-06-26T15:10:16;2.00;;;1.20;;